Catàleg de serveis del Meteocat
Campanya meteocatpedra

Dades de l'estació automàtica Alcanar

?
?
Resum diari 22:00 TU
Dades diàries de l'estació meteorològica
Temperatura mitjana 15.3 °C
Temperatura màxima 17.4 °C 12:20 TU
Temperatura mínima 14.1 °C 22:16 TU
Humitat relativa mitjana 78%
Precipitació acumulada 0.5 mm
Ratxa màxima del vent (2 m) 40.0 km/h - 22º 14:35 TU
Irradiació solar global 8.2 MJ/m2

El tram horari està expressat en Temps Universal (TU). Cal sumar una hora en horari d'hivern i dues en horari d'estiu per passar a l'hora oficial.

Alcanar

Metadades estació meteorol´gica
Municipi Alcanar
Comarca Montsià
Altitud 24 m
Data alta 06.05.1991
Estat actual Operativa
Dades de període
Període
TU
TM
°C
TX
°C
TN
°C
HRM
%
PPT
mm
VVM (2 m)
km/h
DVM (2 m)
graus
VVX (2 m)
km/h
RS
W/m2
00:00 - 00:30 14.9 14.9 14.8 84 0.0 4.7 24 12.2 0
00:30 - 01:00 14.9 14.9 14.9 84 0.0 6.1 25 13.0 0
01:00 - 01:30 14.9 14.9 14.9 84 0.0 5.0 24 13.0 0
01:30 - 02:00 14.8 14.9 14.7 85 0.0 6.1 28 14.8 0
02:00 - 02:30 14.5 14.6 14.5 86 0.0 7.9 26 19.4 0
02:30 - 03:00 14.5 14.5 14.5 87 0.0 8.3 28 19.8 0
03:00 - 03:30 14.5 14.6 14.5 87 0.0 6.8 31 20.5 0
03:30 - 04:00 14.6 14.6 14.5 86 0.0 5.4 48 18.7 0
04:00 - 04:30 14.5 14.6 14.4 85 0.0 5.8 32 17.3 0
04:30 - 05:00 14.4 14.4 14.4 83 0.0 5.4 30 16.9 0
05:00 - 05:30 14.3 14.4 14.3 83 0.0 8.3 25 21.2 6
05:30 - 06:00 14.3 14.3 14.2 83 0.0 4.3 47 20.5 20
06:00 - 06:30 14.4 14.4 14.3 82 0.0 5.8 47 21.2 36
06:30 - 07:00 14.4 14.5 14.3 82 0.0 6.1 57 23.8 37
07:00 - 07:30 14.7 14.9 14.5 80 0.0 6.1 46 22.7 97
07:30 - 08:00 14.8 14.9 14.8 78 0.0 7.6 53 28.8 113
08:00 - 08:30 14.9 15.0 14.8 77 0.0 7.6 50 29.2 150
08:30 - 09:00 15.2 15.4 15.0 75 0.0 7.2 47 22.0 203
09:00 - 09:30 15.5 15.6 15.3 75 0.0 8.3 54 32.4 247
09:30 - 10:00 15.4 15.5 15.3 75 0.0 8.3 60 38.2 218
10:00 - 10:30 15.5 15.7 15.4 75 0.0 8.3 61 25.9 227
10:30 - 11:00 15.9 16.1 15.7 73 0.0 7.9 61 25.9 316
11:00 - 11:30 16.2 16.5 16.0 68 0.0 7.9 63 31.3 368
11:30 - 12:00 16.7 17.0 16.5 65 0.0 7.9 62 32.8 469
12:00 - 12:30 16.9 17.4 16.6 66 0.0 7.2 61 34.6 457
12:30 - 13:00 16.9 17.1 16.7 66 0.0 8.6 62 29.9 405
13:00 - 13:30 16.9 17.1 16.8 67 0.0 8.6 60 39.2 382
13:30 - 14:00 16.6 16.7 16.5 69 0.0 8.6 62 34.6 260
14:00 - 14:30 16.5 16.7 16.4 70 0.0 8.6 62 33.1 237
14:30 - 15:00 16.3 16.4 16.2 70 0.0 8.3 63 40.0 93
15:00 - 15:30 16.1 16.2 16.0 71 0.0 6.8 61 25.6 45
15:30 - 16:00 15.9 15.9 15.7 73 0.0 9.0 62 30.2 48
16:00 - 16:30 15.7 15.8 15.7 74 0.0 8.3 61 30.2 30
16:30 - 17:00 15.6 15.7 15.6 76 0.0 6.5 61 25.2 22
17:00 - 17:30 15.5 15.6 15.4 77 0.0 7.9 62 27.4 13
17:30 - 18:00 15.4 15.5 15.3 79 0.0 7.2 57 24.8 9
18:00 - 18:30 15.3 15.3 15.2 81 0.0 8.3 61 38.5 7
18:30 - 19:00 15.3 15.3 15.2 80 0.0 7.6 58 29.9 5
19:00 - 19:30 15.2 15.3 15.2 80 0.0 8.3 60 33.5 5
19:30 - 20:00 15.3 15.3 15.2 79 0.0 7.6 61 29.2 5
20:00 - 20:30 15.2 15.3 15.1 81 0.0 6.1 60 18.7 4
20:30 - 21:00 15.1 15.2 15.1 82 0.0 6.1 63 26.3 4
21:00 - 21:30 15.1 15.1 15.0 83 0.0 6.5 68 22.0 5
21:30 - 22:00 14.8 15.0 14.5 85 0.0 7.6 66 27.0 5
22:00 - 22:30 14.2 14.5 14.1 92 0.5 6.8 63 33.5 5
22:30 - 23:00 (s/d) (s/d) (s/d) (s/d) (s/d) (s/d) (s/d) (s/d) (s/d)

Les dades en taronja només han passat un control de qualitat automàtic. Resta pendent la seva validació definitiva.